Data for 05/12/2006

Time Sea-Level Adjusted Pressure Absolute Pressure Temperature Relative Humidity Dew Point   
(mb) (inHg) (mb) (inHg) (C) (F) (%) (C) (F)
00:05 1016 30 845 24.95 11.9 53.5 56 3.6 38.5
00:10 1016 30 845 24.95 11.7 53.1 57 3.5 38.4
00:15 1016 30 845 24.95 11.7 53 57 3.4 38.2
00:20 1016 30 845 24.95 11.5 52.7 57 3.4 38.1
00:25 1016 30 845 24.95 11.4 52.5 57 3.2 37.8
00:30 1016 30 845 24.95 11 51.7 58 3.1 37.5
00:35 1016 30 845 24.95 10.7 51.2 58 2.8 37.1
00:40 1016 30 845 24.95 10.7 51.3 58 2.8 37
00:45 1016 30 845 24.95 10.8 51.5 59 3.1 37.5
00:50 1016 30 845 24.95 10.5 50.9 61 3.4 38.1
00:55 1016 30 845 24.95 10.3 50.6 59 2.7 36.9
01:00 1016 30 845 24.95 10.7 51.2 58 2.9 37.3
01:05 1016 30 845 24.95 10.6 51 60 3.1 37.6
01:10 1016 30 845 24.95 10.2 50.3 59 2.6 36.7
01:15 1016 30 845 24.95 10.2 50.4 59 2.5 36.6
01:20 1016 30 845 24.95 10.1 50.1 59 2.4 36.4
01:25 1016 30 845 24.95 10.1 50.1 58 2.3 36.2
01:30 1016 30 845 24.95 10 50.1 58 2.1 35.8
01:35 1016 30 845 24.95 10 50 58 2.1 35.9
01:40 1016 30 845 24.95 9.7 49.5 60 2.4 36.3
01:45 1016 30 845 24.95 9.3 48.7 61 2.1 35.9
01:50 1016 30 845 24.95 9.1 48.4 61 1.9 35.5
01:55 1016 30 845 24.95 9.4 48.9 59 1.8 35.2
02:00 1016 30 845 24.95 9.7 49.4 57 1.7 35
02:05 1016 30 845 24.95 9.6 49.3 59 2 35.6
02:10 1016 30 845 24.95 9.7 49.5 58 1.9 35.4
02:15 1016 30 845 24.95 9.8 49.6 57 1.8 35.2
02:20 1016 30 845 24.95 9.5 49.1 59 2 35.5
02:25 1016 30 845 24.95 9.2 48.5 59 1.7 35
02:30 1015 29.97 845 24.95 9.3 48.7 59 1.8 35.3
02:35 1015 29.97 845 24.95 9 48.3 59 1.6 34.9
02:40 1015 29.97 845 24.95 8.9 48 60 1.7 35
02:45 1015 29.97 845 24.95 8.7 47.7 60 1.5 34.7
02:50 1015 29.97 845 24.95 8.8 47.8 59 1.3 34.4
02:55 1015 29.97 844 24.92 8.8 47.8 60 1.5 34.7
03:00 1015 29.97 844 24.92 8.6 47.4 60 1.4 34.5
03:05 1015 29.97 844 24.92 8.3 47 61 1.4 34.5
03:10 1015 29.97 844 24.92 8.1 46.6 64 1.7 35
03:15 1015 29.97 844 24.92 7.7 45.9 63 1.2 34.2
03:20 1015 29.97 845 24.95 8 46.3 64 1.5 34.7
03:25 1015 29.97 845 24.95 8 46.4 63 1.3 34.4
03:30 1015 29.97 845 24.95 8 46.4 63 1.4 34.5
03:35 1015 29.97 844 24.92 7.9 46.3 63 1.4 34.5
03:40 1015 29.97 844 24.92 8 46.3 64 1.6 34.9
03:45 1015 29.97 844 24.92 7.7 45.8 65 1.6 34.8
03:50 1015 29.97 844 24.92 7.7 45.9 65 1.5 34.8
03:55 1015 29.97 844 24.92 7.8 46 65 1.6 34.9
04:00 1015 29.97 845 24.95 7.7 45.8 64 1.4 34.5
04:05 1015 29.97 845 24.95 7.7 45.8 65 1.6 34.8
04:10 1015 29.97 845 24.95 7.7 45.9 64 1.4 34.6
04:15 1015 29.97 845 24.95 7.9 46.2 64 1.4 34.5
04:20 1015 29.97 845 24.95 8.3 46.9 61 1.3 34.3
04:25 1015 29.97 845 24.95 8.6 47.5 61 1.5 34.7
04:30 1015 29.97 845 24.95 8.6 47.5 61 1.4 34.6
04:35 1015 29.97 845 24.95 8.6 47.5 61 1.6 34.9
04:40 1015 29.97 844 24.92 8.5 47.2 61 1.4 34.5
04:45 1015 29.97 845 24.95 8.5 47.2 61 1.4 34.5
04:50 1015 29.97 845 24.95 8.3 47 63 1.6 34.9
04:55 1015 29.97 845 24.95 8.1 46.5 64 1.7 35
05:00 1015 29.97 845 24.95 7.8 46 65 1.6 34.8
05:05 1015 29.97 845 24.95 7.8 46 64 1.4 34.6
05:10 1015 29.97 845 24.95 8 46.4 62 1.2 34.2
05:15 1015 29.97 845 24.95 8.3 47 61 1.3 34.3
05:20 1016 30 845 24.95 8.6 47.5 60 1.3 34.4
05:25 1016 30 845 24.95 8.4 47.1 63 1.8 35.2
05:30 1016 30 845 24.95 8.1 46.5 64 1.6 34.9
05:35 1015 29.97 845 24.95 8.1 46.5 64 1.6 34.9
05:40 1016 30 845 24.95 7.9 46.3 65 1.7 35.1
05:45 1016 30 845 24.95 7.8 46 65 1.7 35.1
05:50 1016 30 845 24.95 7.8 46 65 1.7 35.1
05:55 1016 30 845 24.95 7.8 46.1 65 1.8 35.2
06:00 1016 30 845 24.95 7.8 46 66 1.8 35.2
06:05 1016 30 845 24.95 7.8 46 65 1.7 35
06:10 1016 30 845 24.95 7.9 46.2 65 1.8 35.2
06:15 1016 30 845 24.95 8 46.3 66 2 35.6
06:20 1016 30 845 24.95 8 46.4 66 2 35.5
06:25 1016 30 845 24.95 7.9 46.2 65 1.8 35.2
06:30 1016 30 845 24.95 8.1 46.6 64 1.8 35.3
06:35 1016 30 845 24.95 8.2 46.7 64 1.8 35.3
06:40 1016 30 845 24.95 8.1 46.6 65 2 35.7
06:45 1016 30 845 24.95 8.1 46.5 65 2 35.5
06:50 1016 30 845 24.95 8.2 46.8 65 2 35.6
06:55 1016 30 845 24.95 8.6 47.6 63 2 35.6
07:00 1016 30 845 24.95 8.9 48 62 2 35.7
07:05 1016 30 845 24.95 9.1 48.4 61 2.1 35.7
07:10 1016 30 845 24.95 9.2 48.6 61 2.1 35.8
07:15 1016 30 845 24.95 9.3 48.8 62 2.4 36.4
07:20 1016 30 845 24.95 9.2 48.6 62 2.2 36
07:25 1016 30 845 24.95 9.7 49.4 59 2.2 36
07:30 1016 30 845 24.95 10.1 50.1 58 2.2 36
07:35 1016 30 845 24.95 10.4 50.7 59 2.7 36.9
07:40 1016 30 845 24.95 10.5 50.9 58 2.6 36.7
07:45 1016 30 845 24.95 10.8 51.4 56 2.5 36.5
07:50 1016 30 845 24.95 11.2 52.2 54 2.4 36.2
07:55 1016 30 845 24.95 12.2 54 50 2.3 36.1
08:00 1016 30 845 24.95 12.7 54.8 49 2.4 36.3
08:05 1016 30 845 24.95 12.5 54.6 50 2.5 36.5
08:10 1016 30 845 24.95 12.6 54.7 50 2.7 36.8
08:15 1016 30 845 24.95 12.8 55.1 49 2.4 36.3
08:20 1016 30 845 24.95 13.3 55.9 47 2.4 36.3
08:25 1016 30 845 24.95 13.4 56 46 2.1 35.8
08:30 1015 29.97 845 24.95 13.5 56.3 45 1.9 35.5
08:35 1015 29.97 845 24.95 13.8 56.8 45 2 35.6
08:40 1015 29.97 845 24.95 13.6 56.5 45 2.1 35.7
08:45 1015 29.97 845 24.95 13.5 56.3 46 2.1 35.8
08:50 1015 29.97 845 24.95 14 57.2 45 2.4 36.3
08:55 1016 30 845 24.95 14.2 57.5 46 2.7 36.8
09:00 1016 30 845 24.95 13.9 57.1 47 3 37.3
09:05 1016 30 845 24.95 14 57.2 46 2.7 36.9
09:10 1016 30 845 24.95 14.4 58 46 3 37.4
09:15 1016 30 845 24.95 14 57.3 47 2.9 37.1
09:20 1016 30 845 24.95 13.8 56.8 48 3.1 37.6
09:25 1016 30 845 24.95 13.9 57.1 47 2.9 37.2
09:30 1016 30 845 24.95 13.8 56.8 49 3.2 37.8
09:35 1016 30 845 24.95 14 57.1 47 3 37.4
09:40 1016 30 845 24.95 14.5 58 46 3 37.4
09:45 1016 30 845 24.95 14.7 58.4 46 3.3 38
09:50 1016 30 845 24.95 14.2 57.5 46 2.8 37.1
09:55 1016 30 845 24.95 14.7 58.5 44 2.8 37.1
10:00 1016 30 845 24.95 14.6 58.2 46 3.1 37.6
10:05 1016 30 845 24.95 13.8 56.8 49 3.3 37.9
10:10 1016 30 845 24.95 14.1 57.4 46 2.7 36.8
10:15 1016 30 845 24.95 14.3 57.8 45 2.7 36.8
10:20 1016 30 845 24.95 14.7 58.4 44 2.8 37
10:25 1015 29.97 845 24.95 14.8 58.7 45 2.9 37.3
10:30 1016 30 845 24.95 15.2 59.3 43 2.7 36.9
10:35 1016 30 845 24.95 15.6 60.2 43 3.1 37.5
10:40 1016 30 845 24.95 16 60.7 42 3.2 37.7
10:45 1016 30 845 24.95 16.3 61.4 42 3.5 38.3
10:50 1016 30 845 24.95 16.2 61.1 42 3.3 38
10:55 1016 30 845 24.95 15.5 59.9 41 2.3 36.1
11:00 1016 30 845 24.95 16 60.8 41 2.8 37
11:05 1016 30 845 24.95 15.5 59.9 41 2.5 36.4
11:10 1016 30 845 24.95 16 60.8 40 2.5 36.5
11:15 1016 30 845 24.95 16.8 62.2 39 3 37.4
11:20 1016 30 845 24.95 17.1 62.8 40 3.6 38.4
11:25 1016 30 845 24.95 17.6 63.7 38 3.4 38.1
11:30 1016 30 845 24.95 17.8 64 38 3.4 38.2
11:35 1016 30 845 24.95 18 64.5 35 2.7 36.8
11:40 1016 30 845 24.95 18.4 65.2 35 2.7 36.9
11:45 1016 30 845 24.95 18.7 65.7 36 3.4 38.1
11:50 1015 29.97 845 24.95 18.8 65.8 35 3.1 37.5
11:55 1015 29.97 845 24.95 19 66.2 34 2.9 37.1
12:00 1015 29.97 844 24.92 19.2 66.5 33 2.8 37.1
12:05 1015 29.97 844 24.92 19.4 66.9 34 3.2 37.8
12:10 1015 29.97 844 24.92 19.2 66.6 33 2.8 37
12:15 1015 29.97 844 24.92 18.8 65.8 34 2.8 37.1
12:20 1015 29.97 844 24.92 18.6 65.4 35 2.8 37.1
12:25 1015 29.97 844 24.92 18.1 64.7 37 3.3 37.9
12:30 1015 29.97 844 24.92 18.6 65.5 34 2.6 36.7
12:35 1015 29.97 844 24.92 19.7 67.4 31 2.3 36.1
12:40 1015 29.97 844 24.92 18.7 65.7 35 3.2 37.8
12:45 1015 29.97 844 24.92 18.5 65.3 33 2.3 36.1
12:50 1015 29.97 844 24.92 19 66.1 33 2.7 36.8
12:55 1015 29.97 844 24.92 19.1 66.4 34 3.1 37.6
13:00 1015 29.97 844 24.92 19.6 67.2 32 2.4 36.3
13:05 1015 29.97 844 24.92 19.7 67.5 33 3 37.5
13:10 1014 29.94 844 24.92 19.4 66.9 33 3 37.4
13:15 1014 29.94 844 24.92 19.2 66.5 31 1.9 35.4
13:20 1014 29.94 844 24.92 19.5 67.1 31 2.2 35.9
13:25 1014 29.94 844 24.92 19.4 66.8 32 2.5 36.4
13:30 1014 29.94 844 24.92 18.9 65.9 31 1.7 35.1
13:35 1014 29.94 843 24.89 19.5 67.1 31 2 35.6
13:40 1014 29.94 843 24.89 20 68.1 29 1.6 34.9
13:45 1014 29.94 843 24.89 20.3 68.5 28 1.5 34.7
13:50 1014 29.94 843 24.89 19.5 67 31 2 35.5
13:55 1014 29.94 843 24.89 20 68.1 28 1.2 34.1
14:00 1014 29.94 843 24.89 20.9 69.5 27 1.6 34.9
14:05 1014 29.94 843 24.89 20.6 69 29 1.9 35.4
14:10 1014 29.94 843 24.89 19.8 67.6 29 1.4 34.6
14:15 1014 29.94 843 24.89 20.1 68.1 29 1.4 34.6
14:20 1014 29.94 843 24.89 20.3 68.5 28 1.1 34
14:25 1014 29.94 843 24.89 20.7 69.2 27 0.9 33.7
14:30 1014 29.94 843 24.89 20.5 68.9 28 1.4 34.6
14:35 1014 29.94 843 24.89 20.2 68.3 26 0.4 32.8
14:40 1014 29.94 843 24.89 20.5 68.9 28 1.4 34.6
14:45 1014 29.94 843 24.89 21.1 69.9 26 1 33.8
14:50 1014 29.94 843 24.89 21 69.8 27 1.5 34.8
14:55 1014 29.94 843 24.89 20.8 69.5 28 1.7 35
15:00 1014 29.94 843 24.89 21.5 70.6 26 1.5 34.8
15:05 1014 29.94 843 24.89 21.3 70.3 25 0.7 33.3
15:10 1013 29.91 843 24.89 21.2 70.1 24 0.1 32.2
15:15 1013 29.91 843 24.89 21.2 70.1 25 0.4 32.8
15:20 1013 29.91 843 24.89 21.6 70.9 24 0.6 33.1
15:25 1013 29.91 843 24.89 21.5 70.7 25 0.8 33.4
15:30 1013 29.91 843 24.89 21.5 70.8 24 0.3 32.6
15:35 1013 29.91 843 24.89 21.4 70.6 24 0.2 32.4
15:40 1013 29.91 843 24.89 21.3 70.4 24 0.1 32.1
15:45 1013 29.91 842 24.86 22 71.5 23 0.1 32.1
15:50 1013 29.91 842 24.86 22.1 71.7 22 -0.5 31.1
15:55 1013 29.91 842 24.86 22.2 71.9 22 -0.7 30.8
16:00 1013 29.91 842 24.86 22 71.7 23 0.3 32.5
16:05 1013 29.91 842 24.86 21.7 71.1 23 0.1 32.2
16:10 1013 29.91 842 24.86 21.6 70.8 24 0.2 32.3
16:15 1013 29.91 842 24.86 21.2 70.1 23 -0.7 30.7
16:20 1013 29.91 842 24.86 21 69.8 23 -0.5 31.1
16:25 1013 29.91 842 24.86 21.2 70.1 23 -0.9 30.4
16:30 1013 29.91 842 24.86 21.5 70.6 22 -1.2 29.8
16:35 1013 29.91 842 24.86 21.4 70.5 22 -0.7 30.7
16:40 1013 29.91 842 24.86 21.1 70 23 -0.5 31.1
16:45 1013 29.91 842 24.86 20.7 69.3 23 -0.9 30.5
16:50 1013 29.91 842 24.86 20.9 69.6 23 -1 30.2
16:55 1013 29.91 842 24.86 21.3 70.4 22 -1.2 29.9
17:00 1013 29.91 842 24.86 21.4 70.5 22 -0.7 30.7
17:05 1013 29.91 842 24.86 21.7 71 23 -0.1 31.7
17:10 1013 29.91 842 24.86 21.4 70.4 23 -0.5 31.1
17:15 1013 29.91 842 24.86 21.1 69.9 24 0.1 32.2
17:20 1013 29.91 842 24.86 21.3 70.3 22 -1.2 29.8
17:25 1013 29.91 842 24.86 21.2 70.1 23 -0.7 30.7
17:30 1013 29.91 842 24.86 20.7 69.3 23 -1.1 30
17:35 1013 29.91 842 24.86 20.6 69 23 -0.9 30.3
17:40 1013 29.91 842 24.86 20.7 69.2 24 -0.6 30.9
17:45 1013 29.91 842 24.86 20.8 69.4 25 0.1 32.1
17:50 1013 29.91 842 24.86 20.5 69 24 -0.7 30.8
17:55 1013 29.91 842 24.86 20.3 68.6 23 -1.3 29.7
18:00 1013 29.91 842 24.86 20.1 68.2 22 -2.2 28.1
18:05 1013 29.91 843 24.89 19.9 67.8 23 -1.7 28.9
18:10 1013 29.91 843 24.89 20 67.9 24 -1.3 29.7
18:15 1013 29.91 843 24.89 20.2 68.3 22 -2.2 28
18:20 1014 29.94 843 24.89 20.5 68.8 21 -2.2 28.1
18:25 1013 29.91 843 24.89 20.8 69.4 22 -1.4 29.5
18:30 1013 29.91 843 24.89 20.8 69.4 21 -2 28.5
18:35 1013 29.91 843 24.89 20.7 69.2 21 -2.1 28.2
18:40 1013 29.91 843 24.89 20.5 69 21 -2.3 27.8
18:45 1014 29.94 843 24.89 20.3 68.6 21 -2.6 27.4
18:50 1014 29.94 843 24.89 20.5 68.9 21 -2.3 27.8
18:55 1014 29.94 843 24.89 20.7 69.2 21 -2.3 27.9
19:00 1014 29.94 843 24.89 20.4 68.8 22 -1.6 29.1
19:05 1014 29.94 843 24.89 20.1 68.2 22 -2 28.3
19:10 1014 29.94 843 24.89 19.7 67.4 23 -2.1 28.2
19:15 1014 29.94 843 24.89 19.6 67.3 22 -2.4 27.7
19:20 1014 29.94 843 24.89 19.3 66.8 23 -2.1 28.2
19:25 1014 29.94 843 24.89 19.4 66.9 22 -2.6 27.3
19:30 1014 29.94 843 24.89 19.4 66.9 22 -2.7 27.1
19:35 1014 29.94 843 24.89 19.1 66.4 23 -2.6 27.3
19:40 1014 29.94 843 24.89 19 66.2 22 -2.8 26.9
19:45 1014 29.94 843 24.89 18.9 66 23 -2.6 27.4
19:50 1014 29.94 843 24.89 18.8 65.8 22 -3.1 26.4
19:55 1014 29.94 843 24.89 18.6 65.6 23 -2.8 26.9
20:00 1014 29.94 843 24.89 18.6 65.4 23 -2.8 26.9
20:05 1014 29.94 844 24.92 18.6 65.4 23 -3.1 26.5
20:10 1014 29.94 844 24.92 18.4 65.2 24 -2.6 27.3
20:15 1014 29.94 844 24.92 18.5 65.2 24 -2.3 27.8
20:20 1015 29.97 844 24.92 18.4 65.2 24 -2.4 27.7
20:25 1015 29.97 844 24.92 18.2 64.8 24 -2.7 27.2
20:30 1015 29.97 844 24.92 17.8 64.1 23 -3.6 25.6
20:35 1015 29.97 844 24.92 17.1 62.8 23 -4.3 24.3
20:40 1015 29.97 844 24.92 16.6 61.9 22 -4.8 23.3
20:45 1015 29.97 844 24.92 16.2 61.1 23 -4.9 23.2
20:50 1015 29.97 844 24.92 15.9 60.7 23 -4.9 23.1
20:55 1015 29.97 844 24.92 15.7 60.2 23 -5.4 22.3
21:00 1015 29.97 845 24.95 15.5 59.9 23 -5.3 22.4
21:05 1015 29.97 845 24.95 15.3 59.5 24 -5.2 22.6
21:10 1016 30 845 24.95 15.2 59.3 24 -5.3 22.5
21:15 1016 30 845 24.95 15 59 23 -5.6 21.8
21:20 1016 30 845 24.95 14.8 58.7 23 -5.9 21.4
21:25 1016 30 845 24.95 14.7 58.4 24 -5.8 21.6
21:30 1016 30 845 24.95 14.5 58.1 23 -6.3 20.7
21:35 1016 30 845 24.95 14.3 57.8 25 -5.5 22.1
21:40 1016 30 846 24.98 13.7 56.7 29 -4 24.8
21:45 1016 30 846 24.98 13.1 55.6 30 -4 24.8
21:50 1017 30.03 846 24.98 12.9 55.2 30 -4.3 24.3
21:55 1017 30.03 846 24.98 13.2 55.7 28 -4.8 23.3
22:00 1017 30.03 846 24.98 13.4 56.2 28 -4.6 23.7
22:05 1017 30.03 846 24.98 13.3 55.9 28 -4.9 23.2
22:10 1017 30.03 846 24.98 13.5 56.2 26 -5.5 22
22:15 1017 30.03 846 24.98 13.8 56.8 26 -5.2 22.7
22:20 1017 30.03 846 24.98 13.5 56.4 28 -4.5 24
22:25 1017 30.03 846 24.98 13.2 55.7 30 -4 24.7
22:30 1017 30.03 846 24.98 12.8 55 30 -4.3 24.2
22:35 1017 30.03 846 24.98 12.5 54.6 29 -5 22.9
22:40 1017 30.03 846 24.98 12.3 54.2 31 -4.3 24.2
22:45 1017 30.03 846 24.98 12.3 54.1 29 -5 23
22:50 1017 30.03 846 24.98 12.5 54.5 32 -3.6 25.5
22:55 1017 30.03 846 24.98 12 53.6 37 -2.3 27.9
23:00 1017 30.03 847 25.01 10.7 51.3 43 -1.4 29.6
23:05 1017 30.03 847 25.01 10 50 42 -2.1 28.2
23:10 1018 30.06 847 25.01 9.9 49.8 43 -2 28.5
23:15 1018 30.06 847 25.01 9.9 49.8 41 -2.8 27
23:20 1018 30.06 847 25.01 10.3 50.5 37 -3.9 25
23:25 1018 30.06 847 25.01 10.6 51.1 38 -3.2 26.3
23:30 1018 30.06 847 25.01 10.7 51.2 37 -3.4 25.8
23:35 1018 30.06 847 25.01 10.7 51.3 37 -3.3 26.1
23:40 1018 30.06 847 25.01 10.7 51.3 39 -2.8 27
23:45 1018 30.06 847 25.01 10.5 50.9 40 -2.5 27.6
23:50 1018 30.06 847 25.01 10.5 50.9 39 -2.8 26.9
23:55 1018 30.06 847 25.01 10.4 50.7 40 -2.5 27.6
24:00 1018 30.06 847 25.01 10.3 50.5 40 -2.6 27.3